ARG1210 SABE-SBFL
Flight info
| Callsign | ARG1210 |
|---|---|
| Flight time | 1h 36m |
| Altitude | 35000 |
| Route | DORVO8 DORVO UN857 ITBEB UM540 DADMO |
| Aircraft | B738/M-SDE2E3FGHIRWXY/LB1 |
Departure
| Time | 2026-04-16 21:32 |
|---|---|
| Airport | Aeroparque Jorge Newbery (SABE) |
Arrival
| Time | 2026-04-16 23:08 |
|---|---|
| Airport | Hercílio Luz International Airport (SBFL) |
| Time | Latitude | Longitude | Altitude | Speed | Heading |
|---|---|---|---|---|---|
| 2026-04-16 21:10 | -34.55785 | -58.41285 | 26 ft | 0 kts | 40° |
| 2026-04-16 21:21 | -34.55786 | -58.41286 | 26 ft | 2 kts | 40° |
| 2026-04-16 21:21 | -34.55807 | -58.41300 | 27 ft | 4 kts | 357° |
| 2026-04-16 21:22 | -34.55829 | -58.41289 | 29 ft | 4 kts | 309° |
| 2026-04-16 21:22 | -34.55833 | -58.41283 | 28 ft | 0 kts | 303° |
| 2026-04-16 21:24 | -34.55833 | -58.41284 | 26 ft | 1 kts | 303° |
| 2026-04-16 21:24 | -34.55812 | -58.41323 | 29 ft | 10 kts | 302° |
| 2026-04-16 21:25 | -34.55762 | -58.41419 | 29 ft | 16 kts | 303° |
| 2026-04-16 21:25 | -34.55723 | -58.41537 | 28 ft | 15 kts | 257° |
| 2026-04-16 21:25 | -34.55783 | -58.41626 | 27 ft | 14 kts | 276° |
| 2026-04-16 21:25 | -34.55743 | -58.41732 | 28 ft | 14 kts | 296° |
| 2026-04-16 21:26 | -34.55692 | -58.41830 | 25 ft | 14 kts | 305° |
| 2026-04-16 21:26 | -34.55639 | -58.41924 | 28 ft | 13 kts | 304° |
| 2026-04-16 21:26 | -34.55588 | -58.42014 | 30 ft | 13 kts | 306° |
| 2026-04-16 21:26 | -34.55536 | -58.42100 | 28 ft | 12 kts | 306° |
| 2026-04-16 21:27 | -34.55486 | -58.42183 | 27 ft | 12 kts | 306° |
| 2026-04-16 21:27 | -34.55442 | -58.42254 | 26 ft | 8 kts | 307° |
| 2026-04-16 21:27 | -34.55433 | -58.42268 | 28 ft | 0 kts | 307° |
| 2026-04-16 21:29 | -34.55427 | -58.42277 | 27 ft | 4 kts | 307° |
| 2026-04-16 21:29 | -34.55397 | -58.42326 | 27 ft | 8 kts | 307° |
| 2026-04-16 21:29 | -34.55371 | -58.42377 | 29 ft | 3 kts | 290° |
| 2026-04-16 21:30 | -34.55371 | -58.42378 | 29 ft | 1 kts | 290° |
| 2026-04-16 21:30 | -34.55363 | -58.42416 | 25 ft | 9 kts | 281° |
| 2026-04-16 21:30 | -34.55376 | -58.42509 | 31 ft | 11 kts | 222° |
| 2026-04-16 21:30 | -34.55409 | -58.42502 | 29 ft | 0 kts | 123° |
| 2026-04-16 21:31 | -34.55420 | -58.42481 | 26 ft | 20 kts | 123° |
| 2026-04-16 21:31 | -34.55642 | -58.42082 | 27 ft | 93 kts | 124° |
| 2026-04-16 21:31 | -34.56125 | -58.41214 | 26 ft | 153 kts | 123° |
| 2026-04-16 21:32 | -34.56788 | -58.40015 | 368 ft | 176 kts | 125° |
| 2026-04-16 21:32 | -34.57441 | -58.38777 | 1110 ft | 176 kts | 126° |
| 2026-04-16 21:32 | -34.57908 | -58.37346 | 1573 ft | 205 kts | 97° |
| 2026-04-16 21:32 | -34.57532 | -58.35561 | 1794 ft | 238 kts | 60° |
| 2026-04-16 21:33 | -34.56326 | -58.34068 | 2054 ft | 264 kts | 38° |
| 2026-04-16 21:33 | -34.54750 | -58.32772 | 2505 ft | 280 kts | 36° |
| 2026-04-16 21:33 | -34.53399 | -58.31087 | 3233 ft | 280 kts | 65° |
| 2026-04-16 21:33 | -34.52876 | -58.28852 | 4046 ft | 274 kts | 91° |
| 2026-04-16 21:34 | -34.53067 | -58.26591 | 4851 ft | 270 kts | 109° |
| 2026-04-16 21:34 | -34.53576 | -58.24386 | 5603 ft | 273 kts | 112° |
| 2026-04-16 21:34 | -34.54136 | -58.22177 | 6376 ft | 276 kts | 112° |
| 2026-04-16 21:34 | -34.54713 | -58.19937 | 7100 ft | 280 kts | 111° |
| 2026-04-16 21:35 | -34.55300 | -58.17655 | 7794 ft | 286 kts | 111° |
| 2026-04-16 21:35 | -34.55890 | -58.15341 | 8536 ft | 289 kts | 110° |
| 2026-04-16 21:35 | -34.56485 | -58.12990 | 9244 ft | 294 kts | 110° |
| 2026-04-16 21:35 | -34.57086 | -58.10603 | 9922 ft | 298 kts | 110° |
| 2026-04-16 21:36 | -34.57709 | -58.08123 | 10210 ft | 318 kts | 109° |
| 2026-04-16 21:36 | -34.58036 | -58.05367 | 10357 ft | 346 kts | 88° |
| 2026-04-16 21:36 | -34.57491 | -58.02435 | 10576 ft | 367 kts | 73° |
| 2026-04-16 21:36 | -34.56668 | -57.99465 | 11046 ft | 375 kts | 72° |
| 2026-04-16 21:37 | -34.55799 | -57.96455 | 11664 ft | 379 kts | 72° |
| 2026-04-16 21:37 | -34.54932 | -57.93424 | 12301 ft | 382 kts | 72° |
| 2026-04-16 21:37 | -34.54075 | -57.90357 | 12903 ft | 386 kts | 72° |
| 2026-04-16 21:37 | -34.53136 | -57.87289 | 13513 ft | 390 kts | 64° |
| 2026-04-16 21:38 | -34.51726 | -57.84476 | 14101 ft | 391 kts | 55° |
| 2026-04-16 21:38 | -34.50143 | -57.81783 | 14663 ft | 394 kts | 54° |
| 2026-04-16 21:38 | -34.48530 | -57.79079 | 15215 ft | 397 kts | 54° |
| 2026-04-16 21:38 | -34.46904 | -57.76351 | 15779 ft | 400 kts | 54° |
| 2026-04-16 21:39 | -34.45275 | -57.73603 | 16345 ft | 403 kts | 54° |
| 2026-04-16 21:39 | -34.43641 | -57.70834 | 16930 ft | 406 kts | 54° |
| 2026-04-16 21:39 | -34.42001 | -57.68040 | 17469 ft | 409 kts | 54° |
| 2026-04-16 21:39 | -34.40373 | -57.65260 | 18027 ft | 411 kts | 54° |
| 2026-04-16 21:40 | -34.38718 | -57.62428 | 18507 ft | 413 kts | 53° |
| 2026-04-16 21:40 | -34.37054 | -57.59580 | 18998 ft | 415 kts | 53° |
| 2026-04-16 21:40 | -34.35384 | -57.56723 | 19485 ft | 417 kts | 53° |
| 2026-04-16 21:40 | -34.33705 | -57.53852 | 19942 ft | 419 kts | 53° |
| 2026-04-16 21:41 | -34.32013 | -57.50961 | 20430 ft | 421 kts | 53° |
| 2026-04-16 21:41 | -34.30317 | -57.48065 | 20898 ft | 423 kts | 53° |
| 2026-04-16 21:41 | -34.28609 | -57.45152 | 21359 ft | 425 kts | 53° |
| 2026-04-16 21:41 | -34.26894 | -57.42228 | 21806 ft | 428 kts | 52° |
| 2026-04-16 21:42 | -34.25167 | -57.39288 | 22236 ft | 430 kts | 52° |
| 2026-04-16 21:42 | -34.24016 | -57.37330 | 22504 ft | 432 kts | 52° |
| 2026-04-16 21:42 | -34.22272 | -57.34364 | 22933 ft | 434 kts | 52° |
| 2026-04-16 21:42 | -34.20521 | -57.31389 | 23346 ft | 436 kts | 52° |
| 2026-04-16 21:43 | -34.18761 | -57.28400 | 23678 ft | 438 kts | 52° |
| 2026-04-16 21:43 | -34.16987 | -57.25392 | 24016 ft | 440 kts | 52° |
| 2026-04-16 21:43 | -34.15210 | -57.22379 | 24363 ft | 442 kts | 52° |
| 2026-04-16 21:43 | -34.13422 | -57.19352 | 24696 ft | 444 kts | 51° |
| 2026-04-16 21:44 | -34.11626 | -57.16313 | 25017 ft | 446 kts | 51° |
| 2026-04-16 21:44 | -34.09821 | -57.13261 | 25337 ft | 448 kts | 51° |
| 2026-04-16 21:44 | -34.08007 | -57.10196 | 25645 ft | 450 kts | 51° |
| 2026-04-16 21:44 | -34.06182 | -57.07117 | 25938 ft | 452 kts | 51° |
| 2026-04-16 21:45 | -34.04352 | -57.04030 | 26231 ft | 454 kts | 51° |
| 2026-04-16 21:45 | -34.02510 | -57.00926 | 26533 ft | 456 kts | 51° |
| 2026-04-16 21:45 | -34.00662 | -56.97815 | 26828 ft | 458 kts | 51° |
| 2026-04-16 21:45 | -33.98803 | -56.94689 | 27111 ft | 459 kts | 51° |
| 2026-04-16 21:46 | -33.96939 | -56.91557 | 27393 ft | 461 kts | 51° |
| 2026-04-16 21:46 | -33.95068 | -56.88413 | 27674 ft | 463 kts | 51° |
| 2026-04-16 21:46 | -33.93187 | -56.85258 | 27939 ft | 465 kts | 51° |
| 2026-04-16 21:46 | -33.91296 | -56.82088 | 28154 ft | 467 kts | 51° |
| 2026-04-16 21:47 | -33.89396 | -56.78907 | 28399 ft | 469 kts | 51° |
| 2026-04-16 21:47 | -33.87486 | -56.75710 | 28652 ft | 471 kts | 50° |
| 2026-04-16 21:47 | -33.85574 | -56.72514 | 28907 ft | 472 kts | 50° |
| 2026-04-16 21:47 | -33.83649 | -56.69299 | 29154 ft | 474 kts | 50° |
| 2026-04-16 21:48 | -33.81721 | -56.66080 | 29399 ft | 475 kts | 50° |
| 2026-04-16 21:48 | -33.79787 | -56.62856 | 29700 ft | 476 kts | 50° |
| 2026-04-16 21:48 | -33.77856 | -56.59638 | 30043 ft | 474 kts | 50° |
| 2026-04-16 21:48 | -33.75933 | -56.56434 | 30388 ft | 471 kts | 50° |
| 2026-04-16 21:49 | -33.74018 | -56.53248 | 30707 ft | 470 kts | 50° |
| 2026-04-16 21:49 | -33.72103 | -56.50065 | 30981 ft | 470 kts | 50° |
| 2026-04-16 21:49 | -33.70190 | -56.46890 | 31257 ft | 469 kts | 50° |
| 2026-04-16 21:49 | -33.68274 | -56.43711 | 31435 ft | 471 kts | 50° |
| 2026-04-16 21:50 | -33.66345 | -56.40517 | 31611 ft | 473 kts | 50° |
| 2026-04-16 21:50 | -33.64418 | -56.37327 | 31929 ft | 471 kts | 50° |
| 2026-04-16 21:50 | -33.62501 | -56.34154 | 32307 ft | 468 kts | 50° |
| 2026-04-16 21:50 | -33.60597 | -56.31005 | 32653 ft | 466 kts | 50° |
| 2026-04-16 21:51 | -33.58694 | -56.27862 | 32865 ft | 466 kts | 50° |
| 2026-04-16 21:51 | -33.56784 | -56.24712 | 33037 ft | 468 kts | 50° |
| 2026-04-16 21:51 | -33.54871 | -56.21560 | 33293 ft | 467 kts | 50° |
| 2026-04-16 21:51 | -33.52965 | -56.18419 | 33624 ft | 465 kts | 50° |
| 2026-04-16 21:52 | -33.51068 | -56.15296 | 33900 ft | 463 kts | 50° |
| 2026-04-16 21:52 | -33.49171 | -56.12176 | 34081 ft | 463 kts | 50° |
| 2026-04-16 21:52 | -33.47270 | -56.09053 | 34229 ft | 465 kts | 50° |
| 2026-04-16 21:52 | -33.45391 | -56.05971 | 34401 ft | 465 kts | 50° |
| 2026-04-16 21:53 | -33.43486 | -56.02846 | 34618 ft | 464 kts | 50° |
| 2026-04-16 21:53 | -33.41584 | -55.99729 | 34730 ft | 465 kts | 50° |
| 2026-04-16 21:53 | -33.39668 | -55.96593 | 34727 ft | 467 kts | 50° |
| 2026-04-16 21:54 | -33.35840 | -55.90332 | 34729 ft | 464 kts | 50° |
| 2026-04-16 21:54 | -33.32035 | -55.84118 | 34734 ft | 461 kts | 50° |
| 2026-04-16 21:55 | -33.28255 | -55.77955 | 34721 ft | 459 kts | 50° |
| 2026-04-16 21:55 | -33.24478 | -55.71810 | 34736 ft | 458 kts | 50° |
| 2026-04-16 21:56 | -33.20672 | -55.65633 | 34751 ft | 465 kts | 50° |
| 2026-04-16 21:56 | -33.16814 | -55.59379 | 34748 ft | 470 kts | 50° |
| 2026-04-16 21:57 | -33.12922 | -55.53078 | 34748 ft | 472 kts | 50° |
| 2026-04-16 21:57 | -33.09014 | -55.46759 | 34744 ft | 474 kts | 50° |
| 2026-04-16 21:58 | -33.05093 | -55.40432 | 34745 ft | 474 kts | 50° |
| 2026-04-16 21:58 | -33.01171 | -55.34114 | 34745 ft | 474 kts | 50° |
| 2026-04-16 21:59 | -32.97254 | -55.27815 | 34749 ft | 473 kts | 50° |
| 2026-04-16 21:59 | -32.93343 | -55.21535 | 34742 ft | 471 kts | 49° |
| 2026-04-16 22:00 | -32.89445 | -55.15289 | 34749 ft | 470 kts | 49° |
| 2026-04-16 22:00 | -32.85576 | -55.09099 | 34754 ft | 468 kts | 49° |
| 2026-04-16 22:01 | -32.81665 | -55.02852 | 34758 ft | 467 kts | 49° |
| 2026-04-16 22:01 | -32.77810 | -54.96706 | 34746 ft | 467 kts | 49° |
| 2026-04-16 22:02 | -32.73923 | -54.90519 | 34758 ft | 468 kts | 49° |
| 2026-04-16 22:02 | -32.70025 | -54.84324 | 34767 ft | 469 kts | 49° |
| 2026-04-16 22:03 | -32.66104 | -54.78105 | 34763 ft | 471 kts | 49° |
| 2026-04-16 22:03 | -32.62166 | -54.71867 | 34752 ft | 473 kts | 49° |
| 2026-04-16 22:04 | -32.58207 | -54.65606 | 34769 ft | 475 kts | 49° |
| 2026-04-16 22:04 | -32.54233 | -54.59331 | 34770 ft | 477 kts | 49° |
| 2026-04-16 22:05 | -32.50246 | -54.53046 | 34763 ft | 478 kts | 49° |
| 2026-04-16 22:05 | -32.46253 | -54.46763 | 34753 ft | 478 kts | 48° |
| 2026-04-16 22:06 | -32.42254 | -54.40479 | 34770 ft | 477 kts | 48° |
| 2026-04-16 22:06 | -32.36263 | -54.31087 | 34773 ft | 476 kts | 48° |
| 2026-04-16 22:07 | -32.32272 | -54.24844 | 34713 ft | 475 kts | 48° |
| 2026-04-16 22:07 | -32.28288 | -54.18622 | 34709 ft | 474 kts | 48° |
| 2026-04-16 22:08 | -32.24312 | -54.12421 | 34724 ft | 473 kts | 48° |
| 2026-04-16 22:08 | -32.20332 | -54.06226 | 34741 ft | 473 kts | 48° |
| 2026-04-16 22:09 | -32.16383 | -54.00087 | 34756 ft | 473 kts | 48° |
| 2026-04-16 22:09 | -32.12381 | -53.93876 | 34768 ft | 472 kts | 48° |
| 2026-04-16 22:10 | -32.08426 | -53.87747 | 34783 ft | 473 kts | 48° |
| 2026-04-16 22:10 | -32.04335 | -53.81625 | 34788 ft | 471 kts | 45° |
| 2026-04-16 22:11 | -32.00037 | -53.75874 | 34791 ft | 471 kts | 43° |
| 2026-04-16 22:11 | -31.95660 | -53.70132 | 34783 ft | 472 kts | 43° |
| 2026-04-16 22:12 | -31.91294 | -53.64348 | 34793 ft | 473 kts | 44° |
| 2026-04-16 22:12 | -31.86938 | -53.58542 | 34798 ft | 474 kts | 44° |
| 2026-04-16 22:13 | -31.82572 | -53.52718 | 34799 ft | 475 kts | 44° |
| 2026-04-16 22:13 | -31.78197 | -53.46894 | 34800 ft | 475 kts | 44° |
| 2026-04-16 22:14 | -31.73813 | -53.41068 | 34804 ft | 476 kts | 44° |
| 2026-04-16 22:14 | -31.69427 | -53.35249 | 34806 ft | 476 kts | 44° |
| 2026-04-16 22:15 | -31.65034 | -53.29431 | 34805 ft | 476 kts | 44° |
| 2026-04-16 22:15 | -31.60645 | -53.23626 | 34789 ft | 475 kts | 44° |
| 2026-04-16 22:16 | -31.56293 | -53.17880 | 34809 ft | 474 kts | 44° |
| 2026-04-16 22:16 | -31.51914 | -53.12105 | 34806 ft | 474 kts | 44° |
| 2026-04-16 22:17 | -31.47530 | -53.06334 | 34817 ft | 474 kts | 44° |
| 2026-04-16 22:17 | -31.43143 | -53.00568 | 34801 ft | 474 kts | 44° |
| 2026-04-16 22:18 | -31.38754 | -52.94807 | 34820 ft | 474 kts | 44° |
| 2026-04-16 22:18 | -31.34358 | -52.89043 | 34828 ft | 475 kts | 44° |
| 2026-04-16 22:19 | -31.29950 | -52.83272 | 34824 ft | 476 kts | 44° |
| 2026-04-16 22:19 | -31.25548 | -52.77481 | 34827 ft | 477 kts | 44° |
| 2026-04-16 22:20 | -31.21134 | -52.71692 | 34828 ft | 477 kts | 44° |
| 2026-04-16 22:20 | -31.16696 | -52.65919 | 34833 ft | 478 kts | 44° |
| 2026-04-16 22:21 | -31.12252 | -52.60151 | 34824 ft | 478 kts | 44° |
| 2026-04-16 22:21 | -31.07807 | -52.54381 | 34836 ft | 478 kts | 44° |
| 2026-04-16 22:22 | -31.03358 | -52.48614 | 34827 ft | 478 kts | 44° |
| 2026-04-16 22:22 | -30.98906 | -52.42851 | 34834 ft | 478 kts | 44° |
| 2026-04-16 22:23 | -30.94450 | -52.37090 | 34839 ft | 479 kts | 44° |
| 2026-04-16 22:23 | -30.89984 | -52.31327 | 34837 ft | 479 kts | 44° |
| 2026-04-16 22:24 | -30.85507 | -52.25666 | 34827 ft | 479 kts | 43° |
| 2026-04-16 22:24 | -30.80953 | -52.20013 | 34843 ft | 479 kts | 43° |
| 2026-04-16 22:25 | -30.76407 | -52.14358 | 34843 ft | 479 kts | 43° |
| 2026-04-16 22:25 | -30.71864 | -52.08697 | 34842 ft | 479 kts | 43° |
| 2026-04-16 22:26 | -30.67305 | -52.03028 | 34835 ft | 480 kts | 43° |
| 2026-04-16 22:26 | -30.62744 | -51.97360 | 34849 ft | 480 kts | 43° |
| 2026-04-16 22:27 | -30.58177 | -51.91690 | 34858 ft | 481 kts | 43° |
| 2026-04-16 22:27 | -30.53602 | -51.86018 | 34849 ft | 482 kts | 43° |
| 2026-04-16 22:28 | -30.49024 | -51.80348 | 34848 ft | 482 kts | 43° |
| 2026-04-16 22:28 | -30.44446 | -51.74688 | 34852 ft | 482 kts | 44° |
| 2026-04-16 22:29 | -30.39956 | -51.68911 | 34853 ft | 482 kts | 45° |
| 2026-04-16 22:29 | -30.35523 | -51.63073 | 34853 ft | 483 kts | 45° |
| 2026-04-16 22:30 | -30.31079 | -51.57252 | 34829 ft | 483 kts | 45° |
| 2026-04-16 22:30 | -30.26650 | -51.51488 | 34841 ft | 482 kts | 45° |
| 2026-04-16 22:31 | -30.22188 | -51.45698 | 34845 ft | 482 kts | 45° |
| 2026-04-16 22:31 | -30.17726 | -51.39915 | 34829 ft | 482 kts | 45° |
| 2026-04-16 22:32 | -30.13984 | -51.35072 | 34812 ft | 482 kts | 45° |
| 2026-04-16 22:32 | -30.09518 | -51.29297 | 34785 ft | 482 kts | 45° |
| 2026-04-16 22:33 | -30.05055 | -51.23535 | 34773 ft | 481 kts | 45° |
| 2026-04-16 22:33 | -30.00623 | -51.17820 | 34773 ft | 481 kts | 45° |
| 2026-04-16 22:34 | -29.96159 | -51.12084 | 34800 ft | 480 kts | 45° |
| 2026-04-16 22:34 | -29.91690 | -51.06362 | 34807 ft | 480 kts | 45° |
| 2026-04-16 22:35 | -29.87223 | -51.00647 | 34814 ft | 480 kts | 45° |
| 2026-04-16 22:35 | -29.82755 | -50.94937 | 34823 ft | 480 kts | 45° |
| 2026-04-16 22:36 | -29.78287 | -50.89234 | 34842 ft | 479 kts | 45° |
| 2026-04-16 22:36 | -29.73821 | -50.83542 | 34864 ft | 479 kts | 45° |
| 2026-04-16 22:37 | -29.69349 | -50.77851 | 34873 ft | 479 kts | 45° |
| 2026-04-16 22:37 | -29.64878 | -50.72168 | 34876 ft | 479 kts | 45° |
| 2026-04-16 22:38 | -29.60398 | -50.66482 | 34874 ft | 479 kts | 45° |
| 2026-04-16 22:38 | -29.55920 | -50.60805 | 34883 ft | 480 kts | 45° |
| 2026-04-16 22:39 | -29.51279 | -50.55316 | 34879 ft | 476 kts | 35° |
| 2026-04-16 22:39 | -29.45992 | -50.50763 | 34893 ft | 476 kts | 32° |
| 2026-04-16 22:40 | -29.40641 | -50.46278 | 34902 ft | 477 kts | 33° |
| 2026-04-16 22:40 | -29.35299 | -50.41747 | 34917 ft | 478 kts | 33° |
| 2026-04-16 22:41 | -29.29961 | -50.37180 | 34917 ft | 479 kts | 33° |
| 2026-04-16 22:41 | -29.24613 | -50.32599 | 34913 ft | 480 kts | 33° |
| 2026-04-16 22:42 | -29.19254 | -50.28017 | 34921 ft | 481 kts | 33° |
| 2026-04-16 22:42 | -29.13892 | -50.23441 | 34923 ft | 481 kts | 33° |
| 2026-04-16 22:43 | -29.09144 | -50.18116 | 34539 ft | 477 kts | 49° |
| 2026-04-16 22:43 | -29.07108 | -50.15118 | 33980 ft | 477 kts | 49° |
| 2026-04-16 22:43 | -29.05100 | -50.12161 | 33384 ft | 477 kts | 49° |
| 2026-04-16 22:44 | -29.03063 | -50.09178 | 32886 ft | 475 kts | 49° |
| 2026-04-16 22:44 | -29.01030 | -50.06224 | 32447 ft | 471 kts | 49° |
| 2026-04-16 22:44 | -28.99006 | -50.03305 | 32015 ft | 467 kts | 49° |
| 2026-04-16 22:44 | -28.96993 | -50.00414 | 31588 ft | 464 kts | 49° |
| 2026-04-16 22:45 | -28.94986 | -49.97541 | 31145 ft | 461 kts | 49° |
| 2026-04-16 22:45 | -28.92989 | -49.94687 | 30679 ft | 459 kts | 49° |
| 2026-04-16 22:45 | -28.90998 | -49.91845 | 30280 ft | 457 kts | 49° |
| 2026-04-16 22:45 | -28.89022 | -49.89023 | 29826 ft | 455 kts | 49° |
| 2026-04-16 22:46 | -28.87054 | -49.86217 | 29357 ft | 451 kts | 49° |
| 2026-04-16 22:46 | -28.85101 | -49.83433 | 28948 ft | 447 kts | 49° |
| 2026-04-16 22:46 | -28.83166 | -49.80676 | 28486 ft | 444 kts | 49° |
| 2026-04-16 22:46 | -28.81249 | -49.77946 | 28014 ft | 441 kts | 49° |
| 2026-04-16 22:47 | -28.79331 | -49.75215 | 27578 ft | 438 kts | 49° |
| 2026-04-16 22:47 | -28.77434 | -49.72517 | 27151 ft | 436 kts | 49° |
| 2026-04-16 22:47 | -28.75542 | -49.69829 | 26697 ft | 433 kts | 49° |
| 2026-04-16 22:47 | -28.73661 | -49.67156 | 26286 ft | 431 kts | 49° |
| 2026-04-16 22:48 | -28.71804 | -49.64517 | 25838 ft | 424 kts | 49° |
| 2026-04-16 22:48 | -28.69963 | -49.61905 | 25279 ft | 421 kts | 49° |
| 2026-04-16 22:48 | -28.68138 | -49.59317 | 24671 ft | 418 kts | 49° |
| 2026-04-16 22:48 | -28.66326 | -49.56750 | 24064 ft | 415 kts | 49° |
| 2026-04-16 22:49 | -28.64523 | -49.54195 | 23487 ft | 412 kts | 49° |
| 2026-04-16 22:49 | -28.62738 | -49.51669 | 22830 ft | 407 kts | 49° |
| 2026-04-16 22:49 | -28.60974 | -49.49174 | 22214 ft | 403 kts | 49° |
| 2026-04-16 22:49 | -28.59229 | -49.46706 | 21641 ft | 397 kts | 49° |
| 2026-04-16 22:50 | -28.57508 | -49.44273 | 21054 ft | 393 kts | 49° |
| 2026-04-16 22:50 | -28.55801 | -49.41862 | 20462 ft | 389 kts | 49° |
| 2026-04-16 22:50 | -28.54114 | -49.39481 | 19905 ft | 385 kts | 49° |
| 2026-04-16 22:50 | -28.52445 | -49.37128 | 19354 ft | 381 kts | 48° |
| 2026-04-16 22:51 | -28.50793 | -49.34799 | 18818 ft | 376 kts | 48° |
| 2026-04-16 22:51 | -28.49158 | -49.32495 | 18304 ft | 372 kts | 48° |
| 2026-04-16 22:51 | -28.47539 | -49.30215 | 17709 ft | 369 kts | 48° |
| 2026-04-16 22:51 | -28.45938 | -49.27961 | 17279 ft | 365 kts | 48° |
| 2026-04-16 22:52 | -28.44347 | -49.25725 | 16896 ft | 363 kts | 48° |
| 2026-04-16 22:52 | -28.42765 | -49.23502 | 16511 ft | 361 kts | 48° |
| 2026-04-16 22:52 | -28.41191 | -49.21290 | 16153 ft | 359 kts | 48° |
| 2026-04-16 22:52 | -28.39623 | -49.19088 | 15788 ft | 357 kts | 48° |
| 2026-04-16 22:53 | -28.38064 | -49.16900 | 15417 ft | 355 kts | 48° |
| 2026-04-16 22:53 | -28.36517 | -49.14728 | 15075 ft | 352 kts | 48° |
| 2026-04-16 22:53 | -28.34998 | -49.12599 | 14716 ft | 351 kts | 48° |
| 2026-04-16 22:53 | -28.33464 | -49.10450 | 14368 ft | 349 kts | 48° |
| 2026-04-16 22:54 | -28.31945 | -49.08322 | 14016 ft | 346 kts | 48° |
| 2026-04-16 22:54 | -28.30432 | -49.06204 | 13678 ft | 344 kts | 48° |
| 2026-04-16 22:54 | -28.28928 | -49.04098 | 13268 ft | 343 kts | 48° |
| 2026-04-16 22:54 | -28.27427 | -49.02005 | 12893 ft | 341 kts | 48° |
| 2026-04-16 22:55 | -28.25938 | -48.99924 | 12550 ft | 339 kts | 48° |
| 2026-04-16 22:55 | -28.24460 | -48.97856 | 12197 ft | 337 kts | 48° |
| 2026-04-16 22:55 | -28.22988 | -48.95798 | 11854 ft | 335 kts | 48° |
| 2026-04-16 22:55 | -28.21527 | -48.93756 | 11509 ft | 333 kts | 48° |
| 2026-04-16 22:56 | -28.20069 | -48.91721 | 11167 ft | 331 kts | 48° |
| 2026-04-16 22:56 | -28.18622 | -48.89705 | 10829 ft | 329 kts | 48° |
| 2026-04-16 22:56 | -28.17182 | -48.87697 | 10496 ft | 328 kts | 48° |
| 2026-04-16 22:56 | -28.15760 | -48.85711 | 10319 ft | 319 kts | 47° |
| 2026-04-16 22:57 | -28.14379 | -48.83783 | 10170 ft | 311 kts | 48° |
| 2026-04-16 22:57 | -28.13033 | -48.81910 | 10044 ft | 302 kts | 47° |
| 2026-04-16 22:57 | -28.11726 | -48.80092 | 9895 ft | 294 kts | 47° |
| 2026-04-16 22:57 | -28.10435 | -48.78302 | 9618 ft | 292 kts | 48° |
| 2026-04-16 22:58 | -28.09155 | -48.76522 | 9349 ft | 289 kts | 48° |
| 2026-04-16 22:58 | -28.07895 | -48.74769 | 9134 ft | 286 kts | 48° |
| 2026-04-16 22:58 | -28.06641 | -48.73026 | 8879 ft | 284 kts | 48° |
| 2026-04-16 22:58 | -28.05396 | -48.71298 | 8604 ft | 283 kts | 47° |
| 2026-04-16 22:59 | -28.04152 | -48.69572 | 8325 ft | 282 kts | 49° |
| 2026-04-16 22:59 | -28.02912 | -48.67852 | 8060 ft | 281 kts | 48° |
| 2026-04-16 22:59 | -28.01677 | -48.66142 | 7800 ft | 280 kts | 49° |
| 2026-04-16 22:59 | -28.00445 | -48.64435 | 7538 ft | 279 kts | 49° |
| 2026-04-16 23:00 | -27.99223 | -48.62740 | 7259 ft | 278 kts | 48° |
| 2026-04-16 23:00 | -27.98004 | -48.61052 | 6999 ft | 276 kts | 46° |
| 2026-04-16 23:00 | -27.96796 | -48.59378 | 6729 ft | 274 kts | 47° |
| 2026-04-16 23:00 | -27.95596 | -48.57715 | 6468 ft | 272 kts | 47° |
| 2026-04-16 23:01 | -27.94402 | -48.56062 | 6206 ft | 270 kts | 48° |
| 2026-04-16 23:01 | -27.93217 | -48.54424 | 5931 ft | 268 kts | 47° |
| 2026-04-16 23:01 | -27.92053 | -48.52814 | 5680 ft | 266 kts | 47° |
| 2026-04-16 23:01 | -27.90887 | -48.51203 | 5415 ft | 264 kts | 48° |
| 2026-04-16 23:02 | -27.89726 | -48.49596 | 5149 ft | 263 kts | 47° |
| 2026-04-16 23:02 | -27.88575 | -48.48005 | 4893 ft | 261 kts | 46° |
| 2026-04-16 23:02 | -27.87429 | -48.46424 | 4615 ft | 260 kts | 46° |
| 2026-04-16 23:02 | -27.86288 | -48.44849 | 4339 ft | 258 kts | 47° |
| 2026-04-16 23:03 | -27.85149 | -48.43288 | 4057 ft | 256 kts | 44° |
| 2026-04-16 23:03 | -27.83797 | -48.42071 | 3800 ft | 244 kts | 27° |
| 2026-04-16 23:03 | -27.82346 | -48.41134 | 3577 ft | 237 kts | 27° |
| 2026-04-16 23:03 | -27.80941 | -48.40199 | 3357 ft | 231 kts | 28° |
| 2026-04-16 23:04 | -27.79582 | -48.39284 | 3163 ft | 223 kts | 28° |
| 2026-04-16 23:04 | -27.78262 | -48.38475 | 2942 ft | 209 kts | 16° |
| 2026-04-16 23:04 | -27.76880 | -48.38399 | 2760 ft | 194 kts | 349° |
| 2026-04-16 23:04 | -27.75662 | -48.38971 | 2561 ft | 187 kts | 330° |
| 2026-04-16 23:05 | -27.74746 | -48.39979 | 2391 ft | 182 kts | 308° |
| 2026-04-16 23:05 | -27.74110 | -48.41168 | 2395 ft | 177 kts | 307° |
| 2026-04-16 23:05 | -27.73451 | -48.42373 | 2182 ft | 183 kts | 308° |
| 2026-04-16 23:05 | -27.72800 | -48.43572 | 1943 ft | 174 kts | 308° |
| 2026-04-16 23:06 | -27.72202 | -48.44680 | 1777 ft | 157 kts | 307° |
| 2026-04-16 23:06 | -27.71648 | -48.45705 | 1528 ft | 151 kts | 307° |
| 2026-04-16 23:06 | -27.71101 | -48.46718 | 1331 ft | 152 kts | 307° |
| 2026-04-16 23:06 | -27.70554 | -48.47734 | 1132 ft | 151 kts | 306° |
| 2026-04-16 23:07 | -27.69993 | -48.48763 | 906 ft | 156 kts | 302° |
| 2026-04-16 23:07 | -27.69454 | -48.49794 | 698 ft | 152 kts | 305° |
| 2026-04-16 23:07 | -27.68909 | -48.50798 | 492 ft | 149 kts | 304° |
| 2026-04-16 23:07 | -27.68361 | -48.51803 | 356 ft | 151 kts | 303° |
| 2026-04-16 23:08 | -27.67816 | -48.52821 | 118 ft | 151 kts | 306° |
| 2026-04-16 23:08 | -27.67282 | -48.53803 | 25 ft | 135 kts | 301° |
| 2026-04-16 23:08 | -27.66875 | -48.54557 | 27 ft | 90 kts | 301° |
| 2026-04-16 23:08 | -27.66659 | -48.54959 | 26 ft | 30 kts | 301° |
| 2026-04-16 23:09 | -27.66602 | -48.55090 | 25 ft | 15 kts | 270° |
| 2026-04-16 23:09 | -27.66677 | -48.55133 | 29 ft | 14 kts | 162° |
| 2026-04-16 23:09 | -27.66770 | -48.55098 | 27 ft | 14 kts | 146° |
| 2026-04-16 23:09 | -27.66823 | -48.55011 | 28 ft | 13 kts | 122° |
| 2026-04-16 23:10 | -27.66869 | -48.54924 | 27 ft | 13 kts | 121° |
| 2026-04-16 23:10 | -27.66914 | -48.54839 | 26 ft | 12 kts | 121° |
| 2026-04-16 23:10 | -27.66959 | -48.54757 | 28 ft | 12 kts | 122° |
| 2026-04-16 23:10 | -27.67002 | -48.54677 | 30 ft | 12 kts | 121° |
| 2026-04-16 23:11 | -27.67047 | -48.54601 | 30 ft | 12 kts | 139° |
| 2026-04-16 23:11 | -27.67119 | -48.54617 | 26 ft | 11 kts | 206° |
| 2026-04-16 23:11 | -27.67191 | -48.54605 | 26 ft | 11 kts | 140° |
| 2026-04-16 23:11 | -27.67234 | -48.54538 | 27 ft | 10 kts | 125° |
| 2026-04-16 23:12 | -27.67258 | -48.54525 | 29 ft | 3 kts | 191° |
| 2026-04-16 23:12 | -27.67276 | -48.54532 | 29 ft | 3 kts | 207° |
| 2026-04-16 23:12 | -27.67282 | -48.54536 | 28 ft | 3 kts | 213° |
| 2026-04-16 23:12 | -27.67287 | -48.54540 | 29 ft | 0 kts | 213° |